< < Back
Terminal Aerodrome Forecast


Current Version              Previous Versions:   1  2  3  4  5  6  7  8  9  

Terminal Aerodrome Forecast

554
FTUS42 KTAE 300543
TAFVLD
TAF
KVLD 300543Z 3006/0106 18003KT P6SM SCT040 BKN250
      TEMPO 3009/3012 4SM BR
     FM301800 20005KT P6SM VCTS BKN035CB OVC150
     FM302000 19008KT 4SM -TSRA BKN030CB OVC100
     FM010000 18007KT P6SM SCT030 BKN150=



Latest METAR

254
SAUS70 KWBC 301900 RRQ
MTRVLD
METAR KVLD 301853Z VRB03KT 10SM SCT055 SCT070 BKN100 26/23 A3002 RMK AO2
RAB1756E43 SLP172 P0000 T02610228


USA.gov is the U.S. government's official web portal to all federal, state and local government web resources and services.